Currently 86°F in Pinon Hills, California, USA
86°F
86°F / 62°F
4 mph E
0.00"
Tuesday, September 25, 2018 2:16 PM PDT

Pinon Hills, California Weather Summary
Last 36 Hours

Temperature Winds Hourly Humidity Dewpoint
Time Report Norm Report Norm Max Gusts Precip. Rpt. Norm Rpt. Norm Pressure
1,2Tue 02:16 PM  86.0°F  80°F  4 mph E  4 mph  9 mph  0.00"  15%  21%  32°F  35°F  29.99"
Tue 02:00 PM  85.4°F  79°F  2 mph SE  4 mph  13 mph  0.00"  15%  22%  31°F  35°F  30.00"
Tue 01:00 PM  82.2°F  79°F  5 mph S  4 mph  11 mph  0.00"  14%  23%  26°F  36°F  30.02"
Tue 12:00 PM  80.4°F  77°F  2 mph E  3 mph  10 mph  0.00"  15%  25%  27°F  37°F  30.03"
Tue 11:00 AM  79.9°F  75°F  4 mph E  3 mph  10 mph  0.00"  15%  27%  26°F  38°F  30.03"
Tue 10:00 AM  78.0°F  73°F  1 mph NW  2 mph  6 mph  0.00"  15%  31%  24°F  39°F  30.03"
Tue 09:00 AM  74.7°F  70°F  2 mph NW  1 mph  6 mph  0.00"  21%  34%  30°F  40°F  30.02"
Tue 08:00 AM  71.4°F  66°F  calm  1 mph  4 mph  0.00"  27%  39%  35°F  39°F  30.01"
Tue 07:00 AM  62.2°F  60°F  2 mph SW  2 mph  4 mph  0.00"  39%  44%  36°F  37°F  30.00"
Tue 06:00 AM  62.3°F  60°F  3 mph SW  2 mph  5 mph  0.00"  39%  45%  36°F  38°F  29.99"
Tue 05:00 AM  63.1°F  61°F  2 mph SW  2 mph  4 mph  0.00"  37%  43%  35°F  38°F  29.97"
Tue 04:00 AM  63.0°F  61°F  3 mph SW  2 mph  5 mph  0.00"  35%  42%  34°F  37°F  29.97"
Tue 03:00 AM  63.6°F  62°F  3 mph SW  2 mph  7 mph  0.00"  37%  42%  36°F  38°F  29.97"
Tue 02:00 AM  62.4°F  62°F  4 mph SW  2 mph  6 mph  0.00"  39%  43%  36°F  38°F  29.98"
3Tue 01:46 AM  61.5°F  63°F  3 mph SW  2 mph  4 mph  ----  40%  42%  36°F  39°F  29.98"
Tue 01:00 AM  64.7°F  63°F  3 mph SW  3 mph  7 mph  0.00"  38%  42%  38°F  39°F  29.97"
Tue 12:00 AM  64.6°F  64°F  3 mph SW  2 mph  6 mph  0.00"  39%  41%  38°F  39°F  29.97"
Mon 11:00 PM  63.2°F  65°F  2 mph S  2 mph  5 mph  0.00"  46%  41%  41°F  39°F  29.96"
Mon 10:00 PM  63.3°F  66°F  calm  3 mph  4 mph  0.00"  45%  39%  41°F  39°F  29.96"
Mon 09:00 PM  68.3°F  67°F  2 mph NW  2 mph  8 mph  0.00"  39%  37%  41°F  39°F  29.94"
Mon 08:00 PM  68.5°F  69°F  2 mph SW  3 mph  5 mph  0.00"  36%  34%  40°F  38°F  29.92"
Mon 07:00 PM  73.1°F  71°F  1 mph W  3 mph  7 mph  0.00"  31%  32%  40°F  39°F  29.90"
Mon 06:00 PM  78.6°F  76°F  3 mph S  3 mph  12 mph  0.00"  26%  26%  39°F  38°F  29.88"
Mon 05:00 PM  81.8°F  78°F  7 mph S  4 mph  12 mph  0.00"  19%  23%  34°F  36°F  29.88"
Mon 04:00 PM  84.2°F  79°F  4 mph S  5 mph  13 mph  0.00"  15%  22%  30°F  36°F  29.87"
Mon 03:00 PM  84.5°F  80°F  1 mph NE  5 mph  13 mph  0.00"  16%  21%  32°F  35°F  29.88"
Mon 02:00 PM  83.5°F  80°F  5 mph NW  4 mph  11 mph  0.00"  16%  21%  30°F  35°F  29.90"
Mon 01:00 PM  81.9°F  79°F  5 mph NE  4 mph  10 mph  0.00"  17%  23%  32°F  36°F  29.92"
Mon 12:00 PM  80.9°F  77°F  3 mph NE  3 mph  8 mph  0.00"  17%  25%  30°F  37°F  29.94"
Mon 11:00 AM  77.3°F  75°F  2 mph E  3 mph  10 mph  0.00"  19%  28%  30°F  38°F  29.95"
Mon 10:00 AM  75.1°F  73°F  1 mph N  3 mph  8 mph  0.00"  21%  31%  31°F  40°F  29.95"
Mon 09:00 AM  73.2°F  70°F  4 mph S  2 mph  12 mph  0.00"  22%  35%  30°F  40°F  29.95"
Mon 08:00 AM  70.4°F  66°F  calm  1 mph  7 mph  0.00"  26%  39%  33°F  40°F  29.94"
Mon 07:00 AM  63.1°F  60°F  4 mph SW  2 mph  8 mph  0.00"  37%  44%  35°F  37°F  29.94"
Mon 06:00 AM  63.4°F  60°F  3 mph SW  2 mph  8 mph  0.00"  36%  45%  35°F  38°F  29.93"
Mon 05:00 AM  64.2°F  61°F  4 mph SW  2 mph  9 mph  0.00"  35%  43%  35°F  37°F  29.92"
Mon 04:00 AM  65.3°F  61°F  3 mph SW  2 mph  8 mph  0.00"  34%  43%  35°F  37°F  29.92"
Mon 03:00 AM  66.7°F  62°F  4 mph SW  3 mph  6 mph  0.00"  33%  43%  36°F  38°F  29.93"

  1. Current weather data. No green row appears if the current weather data is also the high or low for the current day.
  2. High temperature for the current day.
  3. Low temperature for the current day.

The Pinon Hills, California weather pages are a service of WeatherCurrents.
Copyright ©Tue Sep 25 14:16:31 PDT 2018  WeatherCurrents. All rights reserved. - Submit questions and comments - Privacy Policy

This page automatically refreshes every 10 minutes.